createdAt,value
2022-09-20T00:01:21.709Z,8.67
2022-09-20T00:08:00.857Z,8.65
2022-09-20T00:13:06.864Z,8.51
2022-09-20T00:18:15.240Z,8.56
2022-09-20T00:23:23.381Z,8.72
2022-09-20T00:28:30.912Z,8.66
2022-09-20T00:33:39.465Z,8.66
2022-09-20T00:38:46.664Z,8.66
2022-09-20T00:43:54.549Z,8.8
2022-09-20T00:49:01.752Z,8.99
2022-09-20T00:54:10.577Z,9.14
2022-09-20T00:59:18.325Z,8.97
2022-09-20T01:04:25.802Z,8.86
2022-09-20T01:09:33.152Z,8.92
2022-09-20T01:14:40.930Z,8.84
2022-09-20T01:19:48.102Z,8.78
2022-09-20T01:24:56.366Z,8.83
2022-09-20T01:30:03.148Z,8.72
2022-09-20T01:35:10.911Z,8.76
2022-09-20T01:40:18.271Z,8.96
2022-09-20T01:45:26.233Z,9.38
2022-09-20T01:50:34.084Z,9.54
2022-09-20T01:55:41.701Z,9.65
2022-09-20T02:00:49.931Z,9.71
2022-09-20T02:05:58.002Z,9.55
2022-09-20T02:11:05.707Z,9.44
2022-09-20T02:16:14.709Z,9.3
2022-09-20T02:21:22.143Z,9.29
2022-09-20T02:26:30.459Z,9.26
2022-09-20T02:31:40.223Z,9.39
2022-09-20T02:36:48.653Z,9.42
2022-09-20T02:41:56.916Z,9.44
2022-09-20T02:47:03.949Z,9.29
2022-09-20T02:52:13.497Z,9.14
2022-09-20T02:57:20.827Z,9.1
2022-09-20T03:02:28.103Z,9.14
2022-09-20T03:07:35.441Z,9.29
2022-09-20T03:12:44.151Z,9.22
2022-09-20T03:17:53.016Z,9.1
2022-09-20T03:23:01.172Z,9.08
2022-09-20T03:28:08.582Z,9.05
2022-09-20T03:33:16.486Z,8.96
2022-09-20T03:38:22.977Z,8.8
2022-09-20T03:43:30.832Z,8.77
2022-09-20T03:48:38.192Z,8.7
2022-09-20T03:53:45.860Z,8.71
2022-09-20T03:58:53.779Z,8.8
2022-09-20T04:04:01.656Z,8.84
2022-09-20T04:09:08.938Z,8.9
2022-09-20T04:14:17.252Z,8.92
2022-09-20T04:19:24.476Z,9.16
2022-09-20T04:24:31.851Z,9.14
2022-09-20T04:29:40.699Z,9.16
2022-09-20T04:34:49.745Z,9.19
2022-09-20T04:39:57.567Z,9.28
2022-09-20T04:45:06.275Z,9.32
2022-09-20T04:50:14.868Z,9.38
2022-09-20T04:55:21.860Z,9.51
2022-09-20T05:00:29.053Z,9.66
2022-09-20T05:05:36.261Z,9.92
2022-09-20T05:10:44.494Z,10.09
2022-09-20T05:15:52.500Z,10.38
2022-09-20T05:21:03.126Z,10.46
2022-09-20T05:26:11.346Z,10.54
2022-09-20T05:31:19.189Z,10.48
2022-09-20T05:36:27.174Z,10.44
2022-09-20T05:41:35.886Z,10.32
2022-09-20T05:46:44.355Z,10.21
2022-09-20T05:51:51.888Z,10.32
2022-09-20T05:57:00.993Z,10.54
2022-09-20T06:02:08.588Z,10.76
2022-09-20T06:07:18.536Z,10.93
2022-09-20T06:12:31.672Z,10.97
2022-09-20T06:17:39.974Z,10.96
2022-09-20T06:22:47.300Z,10.94
2022-09-20T06:27:55.346Z,11.15
2022-09-20T06:33:03.231Z,11.32
2022-09-20T06:38:11.690Z,11.34
2022-09-20T06:43:19.843Z,11.35
2022-09-20T06:48:28.216Z,11.38
2022-09-20T06:53:35.658Z,11.54
2022-09-20T06:58:44.052Z,11.84
2022-09-20T07:03:51.957Z,12.21
2022-09-20T07:08:58.829Z,12.11
2022-09-20T07:14:07.559Z,12.13
2022-09-20T07:19:14.838Z,12.5
2022-09-20T07:24:23.114Z,12.76
2022-09-20T07:29:30.558Z,12.86
2022-09-20T07:34:38.664Z,13.07
2022-09-20T07:39:46.683Z,13.36
2022-09-20T07:44:54.796Z,14.07
2022-09-20T07:50:02.004Z,14.0
2022-09-20T07:55:09.116Z,14.02
2022-09-20T08:00:16.981Z,14.39
2022-09-20T08:05:26.147Z,15.82
2022-09-20T08:10:33.265Z,17.26
2022-09-20T08:15:41.639Z,16.42
2022-09-20T08:20:49.150Z,15.2
2022-09-20T08:25:56.107Z,14.93
2022-09-20T08:31:10.036Z,14.69
2022-09-20T08:36:16.903Z,14.51
2022-09-20T08:41:25.244Z,14.52
2022-09-20T08:46:32.571Z,14.6
2022-09-20T08:51:40.908Z,14.66
2022-09-20T08:56:47.669Z,14.7
2022-09-20T09:01:56.815Z,16.1
2022-09-20T09:07:04.594Z,17.91
2022-09-20T09:12:11.428Z,18.48
2022-09-20T09:17:18.596Z,17.42
2022-09-20T09:22:26.188Z,16.72
2022-09-20T09:32:44.552Z,17.35
2022-09-20T09:37:52.421Z,18.58
2022-09-20T09:43:03.102Z,19.04
2022-09-20T09:48:10.613Z,18.01
2022-09-20T09:53:18.776Z,18.0
2022-09-20T09:58:27.015Z,18.56
2022-09-20T10:03:33.975Z,17.38
2022-09-20T10:08:42.374Z,16.84
2022-09-20T10:13:49.077Z,17.11
2022-09-20T10:18:56.247Z,16.67
2022-09-20T10:24:04.044Z,15.61
2022-09-20T10:29:11.296Z,15.11
2022-09-20T10:34:19.140Z,15.09
2022-09-20T10:39:26.417Z,14.57
2022-09-20T10:44:34.218Z,14.16
2022-09-20T10:49:41.414Z,14.88
2022-09-20T10:54:49.866Z,16.88
2022-09-20T10:59:57.060Z,17.8
2022-09-20T11:05:04.183Z,17.98
2022-09-20T11:10:11.808Z,18.83
2022-09-20T11:15:21.084Z,19.54
2022-09-20T11:20:27.175Z,19.02
2022-09-20T11:25:36.142Z,17.52
2022-09-20T11:30:43.448Z,17.42
2022-09-20T11:35:50.624Z,16.8
2022-09-20T11:40:58.329Z,15.52
2022-09-20T11:46:06.319Z,14.92
2022-09-20T11:51:15.320Z,14.4
2022-09-20T11:56:21.876Z,13.92
2022-09-20T12:01:29.328Z,13.94
2022-09-20T12:06:36.410Z,14.18
2022-09-20T12:11:44.392Z,14.32
2022-09-20T12:16:50.816Z,14.34
2022-09-20T12:21:59.162Z,14.52
2022-09-20T12:27:06.001Z,14.7
2022-09-20T12:32:14.254Z,14.53
2022-09-20T12:37:21.536Z,15.24
2022-09-20T12:42:28.736Z,16.46
2022-09-20T12:47:35.902Z,15.58
2022-09-20T12:52:44.245Z,14.56
2022-09-20T12:57:52.011Z,14.05
2022-09-20T13:02:58.862Z,13.89
2022-09-20T13:08:05.385Z,13.99
2022-09-20T13:13:12.759Z,14.14
2022-09-20T13:18:20.463Z,14.2
2022-09-20T13:23:27.666Z,14.06
2022-09-20T13:28:36.487Z,13.92
2022-09-20T13:33:44.450Z,13.55
2022-09-20T13:38:51.781Z,13.42
2022-09-20T13:44:00.151Z,13.04
2022-09-20T13:49:07.504Z,12.98
2022-09-20T13:54:16.049Z,12.99
2022-09-20T13:59:23.185Z,13.66
2022-09-20T14:04:31.029Z,16.04
2022-09-20T14:09:38.232Z,17.15
2022-09-20T14:14:46.516Z,17.72
2022-09-20T14:19:53.215Z,18.2
2022-09-20T14:25:00.418Z,17.73
2022-09-20T14:30:07.616Z,17.62
2022-09-20T14:35:56.445Z,16.28
2022-09-20T14:41:04.904Z,15.48
2022-09-20T14:46:11.459Z,14.58
2022-09-20T14:51:19.943Z,14.76
2022-09-20T14:56:41.853Z,14.84
2022-09-20T15:01:49.919Z,15.26
2022-09-20T15:06:57.548Z,15.68
2022-09-20T15:12:04.882Z,14.51
2022-09-20T15:17:13.054Z,15.13
2022-09-20T15:22:19.823Z,14.46
2022-09-20T15:27:28.823Z,14.64
2022-09-20T15:32:36.352Z,14.26
2022-09-20T15:37:44.240Z,15.54
2022-09-20T15:42:51.372Z,15.52
2022-09-20T15:47:58.331Z,14.75
2022-09-20T15:53:05.464Z,14.46
2022-09-20T15:58:12.676Z,14.22
2022-09-20T16:03:20.655Z,13.13
2022-09-20T16:08:27.781Z,12.24
2022-09-20T16:13:34.973Z,11.72
2022-09-20T16:18:42.552Z,11.42
2022-09-20T16:23:50.603Z,11.16
2022-09-20T16:28:58.932Z,10.94
2022-09-20T16:34:06.854Z,10.76
2022-09-20T16:39:15.283Z,10.62
2022-09-20T16:45:01.764Z,10.44
2022-09-20T16:50:08.951Z,10.28
2022-09-20T16:55:16.153Z,10.14
2022-09-20T17:00:24.913Z,10.04
2022-09-20T17:05:31.838Z,10.03
2022-09-20T17:30:32.818Z,9.42
2022-09-20T17:35:37.917Z,9.3
2022-09-20T17:40:46.345Z,9.11
2022-09-20T17:45:53.543Z,9.02
2022-09-20T17:51:00.831Z,9.01
2022-09-20T17:56:09.149Z,8.88
2022-09-20T18:01:17.063Z,8.76
2022-09-20T18:06:25.590Z,8.68
2022-09-20T18:11:32.799Z,8.72
2022-09-20T18:16:40.574Z,8.76
2022-09-20T18:21:52.207Z,8.71
2022-09-20T18:27:00.884Z,8.66
2022-09-20T18:32:08.520Z,8.62
2022-09-20T18:37:16.660Z,8.52
2022-09-20T18:42:23.616Z,8.64
2022-09-20T18:47:32.629Z,8.64
2022-09-20T18:52:40.225Z,8.46
2022-09-20T18:57:47.140Z,8.49
2022-09-20T19:02:54.824Z,8.58
2022-09-20T19:08:02.128Z,8.67
2022-09-20T19:13:10.653Z,8.47
2022-09-20T19:18:18.436Z,8.33
2022-09-20T19:23:25.693Z,8.2
2022-09-20T19:28:32.892Z,8.14
2022-09-20T19:33:40.248Z,8.19
2022-09-20T19:38:48.155Z,8.29
2022-09-20T19:43:56.265Z,8.34
2022-09-20T19:49:03.618Z,8.22
2022-09-20T19:54:11.645Z,8.22
2022-09-20T19:59:18.027Z,8.46
2022-09-20T20:04:26.932Z,8.74
2022-09-20T20:09:35.365Z,8.76
2022-09-20T20:14:43.216Z,8.8
2022-09-20T20:19:51.314Z,8.78
2022-09-20T20:24:59.104Z,8.75
2022-09-20T20:30:05.703Z,8.72
2022-09-20T20:35:13.669Z,8.69
2022-09-20T20:40:21.381Z,8.7
2022-09-20T20:45:29.619Z,8.73
2022-09-20T20:50:36.467Z,8.72
2022-09-20T20:55:44.306Z,8.72
2022-09-20T21:00:52.022Z,8.75
2022-09-20T21:06:00.191Z,8.8
2022-09-20T21:11:08.290Z,8.77
2022-09-20T21:16:15.601Z,8.72
2022-09-20T21:21:24.632Z,8.61
2022-09-20T21:26:32.996Z,8.58
2022-09-20T21:31:41.265Z,8.58
2022-09-20T21:36:49.340Z,8.61
2022-09-20T21:41:57.485Z,8.54
2022-09-20T21:47:05.733Z,8.49
2022-09-20T21:52:13.908Z,8.54
2022-09-20T21:57:21.743Z,8.62
2022-09-20T22:02:33.268Z,8.51
2022-09-20T22:07:40.468Z,8.53
2022-09-20T22:12:48.097Z,8.62
2022-09-20T22:17:56.027Z,8.54
2022-09-20T22:23:04.130Z,8.42
2022-09-20T22:28:10.492Z,8.28
2022-09-20T22:33:20.023Z,8.2
2022-09-20T22:38:27.454Z,8.16
2022-09-20T22:43:35.286Z,8.3
2022-09-20T22:48:43.185Z,8.47
2022-09-20T22:53:50.414Z,8.4
2022-09-20T22:58:58.425Z,8.34
2022-09-20T23:04:06.131Z,8.26
2022-09-20T23:09:14.680Z,8.46
2022-09-20T23:14:22.885Z,8.58
2022-09-20T23:19:29.548Z,8.62
2022-09-20T23:24:37.419Z,8.88
2022-09-20T23:29:43.944Z,8.84
2022-09-20T23:34:51.735Z,8.92
2022-09-20T23:39:59.661Z,8.86
2022-09-20T23:45:07.657Z,8.72
2022-09-20T23:50:16.448Z,8.8
2022-09-20T23:55:24.924Z,8.8
